createdAt,value
2023-10-29T00:01:47.106Z,99898.63
2023-10-29T00:04:50.894Z,99894.01
2023-10-29T00:07:54.342Z,99889.77
2023-10-29T00:10:57.804Z,99884.92
2023-10-29T00:14:01.695Z,99886.49
2023-10-29T00:17:05.719Z,99893.19
2023-10-29T00:20:10.794Z,99893.59
2023-10-29T00:23:14.241Z,99893.23
2023-10-29T00:26:17.764Z,99893.61
2023-10-29T00:29:21.263Z,99894.33
2023-10-29T00:32:24.915Z,99889.38
2023-10-29T00:35:28.456Z,99889.84
2023-10-29T00:38:32.111Z,99894.60
2023-10-29T00:41:35.681Z,99902.13
2023-10-29T00:44:39.363Z,99903.48
2023-10-29T00:47:42.897Z,99896.16
2023-10-29T00:50:46.891Z,99900.31
2023-10-29T00:53:51.942Z,99901.63
2023-10-29T00:56:56.392Z,99898.69
2023-10-29T00:59:59.904Z,99898.73
2023-10-29T01:03:04.608Z,99890.67
2023-10-29T01:06:09.094Z,99891.50
2023-10-29T01:09:13.783Z,99889.11
2023-10-29T01:12:17.854Z,99889.20
2023-10-29T01:15:21.710Z,99887.77
2023-10-29T01:18:25.217Z,99890.09
2023-10-29T01:21:29.880Z,99894.88
2023-10-29T01:24:34.747Z,99907.39
2023-10-29T01:27:38.492Z,99900.69
2023-10-29T01:30:42.040Z,99899.00
2023-10-29T01:33:45.575Z,99899.58
2023-10-29T01:36:48.998Z,99899.62
2023-10-29T01:39:52.685Z,99901.77
2023-10-29T01:42:56.115Z,99898.27
2023-10-29T01:45:59.624Z,99889.59
2023-10-29T01:49:04.641Z,99882.63
2023-10-29T01:52:08.168Z,99877.71
2023-10-29T01:55:11.619Z,99878.48
2023-10-29T01:58:15.317Z,99872.34
2023-10-29T02:01:18.782Z,99875.23
2023-10-29T02:04:26.812Z,99869.98
2023-10-29T02:07:30.255Z,99865.34
2023-10-29T02:10:33.717Z,99862.21
2023-10-29T02:13:37.148Z,99871.46
2023-10-29T02:16:41.722Z,99867.23
2023-10-29T02:19:45.712Z,99865.18
2023-10-29T02:22:49.205Z,99861.20
2023-10-29T02:25:52.634Z,99857.22
2023-10-29T02:28:56.082Z,99858.28
2023-10-29T02:31:59.491Z,99854.97
2023-10-29T02:35:03.617Z,99859.18
2023-10-29T02:38:07.090Z,99867.13
2023-10-29T02:41:10.687Z,99869.10
2023-10-29T02:44:14.806Z,99859.42
2023-10-29T02:47:18.424Z,99860.98
2023-10-29T02:50:21.874Z,99864.89
2023-10-29T02:53:25.423Z,99864.16
2023-10-29T02:56:29.448Z,99871.88
2023-10-29T02:59:32.976Z,99873.44
2023-10-29T03:02:36.664Z,99880.19
2023-10-29T03:05:53.898Z,99872.13
2023-10-29T03:08:59.985Z,99880.71
2023-10-29T03:12:04.868Z,99885.05
2023-10-29T03:15:10.202Z,99885.30
2023-10-29T03:18:15.198Z,99880.29
2023-10-29T03:21:18.881Z,99878.59
2023-10-29T03:24:22.353Z,99887.09
2023-10-29T03:27:26.126Z,99886.02
2023-10-29T03:30:29.610Z,99890.04
2023-10-29T03:33:33.121Z,99890.59
2023-10-29T03:36:36.680Z,99891.89
2023-10-29T03:39:40.147Z,99884.75
2023-10-29T03:42:43.598Z,99876.61
2023-10-29T03:45:47.241Z,99875.12
2023-10-29T03:48:50.781Z,99880.42
2023-10-29T03:51:54.614Z,99879.11
2023-10-29T03:54:58.087Z,99877.14
2023-10-29T03:58:01.512Z,99883.16
2023-10-29T04:01:05.275Z,99881.81
2023-10-29T04:04:08.997Z,99883.92
2023-10-29T04:07:12.541Z,99891.23
2023-10-29T04:10:16.396Z,99892.20
2023-10-29T04:13:19.883Z,99893.30
2023-10-29T04:16:23.313Z,99901.64
2023-10-29T04:19:27.212Z,99896.18
2023-10-29T04:22:30.615Z,99896.70
2023-10-29T04:25:34.160Z,99893.81
2023-10-29T04:28:37.588Z,99886.55
2023-10-29T04:31:41.031Z,99879.42
2023-10-29T04:34:44.733Z,99875.56
2023-10-29T04:37:48.218Z,99871.96
2023-10-29T04:40:52.297Z,99870.36
2023-10-29T04:43:55.755Z,99870.05
2023-10-29T04:46:59.202Z,99864.40
2023-10-29T04:50:02.854Z,99866.09
2023-10-29T04:53:06.303Z,99873.30
2023-10-29T04:56:09.789Z,99877.42
2023-10-29T04:59:13.815Z,99877.76
2023-10-29T05:02:17.652Z,99877.09
2023-10-29T05:05:21.077Z,99874.96
2023-10-29T05:08:24.560Z,99870.50
2023-10-29T05:11:28.244Z,99866.86
2023-10-29T05:14:31.868Z,99858.98
2023-10-29T05:17:35.455Z,99852.85
2023-10-29T05:20:39.570Z,99847.94
2023-10-29T05:23:43.217Z,99842.95
2023-10-29T05:26:46.820Z,99845.15
2023-10-29T05:29:50.258Z,99845.04
2023-10-29T05:32:53.831Z,99840.76
2023-10-29T05:35:58.148Z,99838.69
2023-10-29T05:39:02.018Z,99833.75
2023-10-29T05:42:06.353Z,99837.57
2023-10-29T05:45:11.090Z,99844.08
2023-10-29T05:48:14.614Z,99850.05
2023-10-29T05:51:19.881Z,99861.08
2023-10-29T05:54:23.349Z,99860.20
2023-10-29T05:57:26.785Z,99857.59
2023-10-29T06:00:30.418Z,99854.16
2023-10-29T06:03:34.482Z,99851.64
2023-10-29T06:06:38.168Z,99848.13
2023-10-29T06:09:41.608Z,99849.70
2023-10-29T06:12:45.066Z,99851.52
2023-10-29T06:15:48.594Z,99847.77
2023-10-29T06:18:52.015Z,99846.55
2023-10-29T06:21:56.053Z,99849.36
2023-10-29T06:24:59.889Z,99852.13
2023-10-29T06:28:03.793Z,99854.92
2023-10-29T06:31:07.257Z,99849.16
2023-10-29T06:34:10.789Z,99842.14
2023-10-29T06:37:14.235Z,99835.46
2023-10-29T06:40:18.221Z,99838.99
2023-10-29T06:43:21.790Z,99834.86
2023-10-29T06:46:25.330Z,99843.90
2023-10-29T06:49:29.469Z,99841.20
2023-10-29T06:52:32.949Z,99839.70
2023-10-29T06:55:37.680Z,99845.02
2023-10-29T06:58:41.608Z,99847.45
2023-10-29T07:01:46.470Z,99838.91
2023-10-29T07:04:50.299Z,99821.86
2023-10-29T07:07:54.990Z,99822.91
2023-10-29T07:10:58.546Z,99824.07
2023-10-29T07:14:02.067Z,99819.01
2023-10-29T07:17:06.029Z,99819.96
2023-10-29T07:20:12.168Z,99818.80
2023-10-29T07:23:16.076Z,99823.27
2023-10-29T07:26:19.493Z,99828.75
2023-10-29T07:29:25.756Z,99819.65
2023-10-29T07:32:29.277Z,99817.48
2023-10-29T07:35:32.949Z,99813.96
2023-10-29T07:38:36.450Z,99824.31
2023-10-29T07:41:39.938Z,99834.86
2023-10-29T07:44:43.392Z,99831.87
2023-10-29T07:47:46.861Z,99833.00
2023-10-29T07:50:54.142Z,99815.70
2023-10-29T07:54:00.576Z,99810.53
2023-10-29T07:57:05.129Z,99809.73
2023-10-29T08:00:11.474Z,99804.90
2023-10-29T08:03:16.484Z,99797.36
2023-10-29T08:06:24.379Z,99797.05
2023-10-29T08:09:28.891Z,99799.18
2023-10-29T08:12:32.401Z,99809.40
2023-10-29T08:15:37.365Z,99812.07
2023-10-29T08:18:42.035Z,99804.27
2023-10-29T08:21:45.572Z,99799.28
2023-10-29T08:24:50.234Z,99796.92
2023-10-29T08:27:53.732Z,99800.38
2023-10-29T08:30:57.204Z,99805.13
2023-10-29T08:34:00.731Z,99802.31
2023-10-29T08:37:04.398Z,99801.03
2023-10-29T08:40:10.395Z,99811.41
2023-10-29T08:43:13.883Z,99818.19
2023-10-29T08:46:17.506Z,99813.21
2023-10-29T08:49:21.144Z,99801.39
2023-10-29T08:52:24.670Z,99798.31
2023-10-29T08:55:28.988Z,99795.55
2023-10-29T08:58:32.416Z,99796.61
2023-10-29T09:01:35.907Z,99802.67
2023-10-29T09:04:39.946Z,99797.55
2023-10-29T09:07:44.041Z,99793.76
2023-10-29T09:10:47.524Z,99794.33
2023-10-29T09:13:51.224Z,99791.70
2023-10-29T09:16:54.655Z,99784.38
2023-10-29T09:19:58.152Z,99788.70
2023-10-29T09:23:01.597Z,99792.11
2023-10-29T09:26:05.916Z,99793.09
2023-10-29T09:29:09.392Z,99793.08
2023-10-29T09:32:14.474Z,99800.10
2023-10-29T09:35:18.130Z,99807.83
2023-10-29T09:38:21.847Z,99803.68
2023-10-29T09:41:25.606Z,99797.77
2023-10-29T09:44:32.159Z,99793.65
2023-10-29T09:47:36.447Z,99781.54
2023-10-29T09:50:40.965Z,99782.94
2023-10-29T09:53:45.099Z,99775.66
2023-10-29T09:56:50.587Z,99769.56
2023-10-29T09:59:54.263Z,99768.20
2023-10-29T10:03:00.333Z,99759.30
2023-10-29T10:06:06.829Z,99756.61
2023-10-29T10:09:10.940Z,99749.70
2023-10-29T10:12:15.840Z,99742.37
2023-10-29T10:15:20.524Z,99736.92
2023-10-29T10:18:24.214Z,99732.69
2023-10-29T10:21:42.247Z,99734.26
2023-10-29T10:24:48.458Z,99726.91
2023-10-29T10:27:54.074Z,99720.39
2023-10-29T10:30:57.889Z,99722.66
2023-10-29T10:34:11.693Z,99721.24
2023-10-29T10:37:15.120Z,99718.80
2023-10-29T10:40:23.851Z,99719.92
2023-10-29T10:43:28.517Z,99714.13
2023-10-29T10:46:34.985Z,99712.63
2023-10-29T10:49:43.963Z,99707.52
2023-10-29T10:52:48.813Z,99709.00
2023-10-29T10:56:03.036Z,99711.88
2023-10-29T10:59:10.332Z,99708.08
2023-10-29T11:02:14.858Z,99706.91
2023-10-29T11:05:18.825Z,99704.77
2023-10-29T11:08:24.408Z,99706.63
2023-10-29T11:11:34.342Z,99712.05
2023-10-29T11:14:37.867Z,99715.23
2023-10-29T11:17:52.445Z,99714.17
2023-10-29T11:20:56.888Z,99709.83
2023-10-29T11:24:18.222Z,99709.40
2023-10-29T11:27:38.089Z,99714.02
2023-10-29T11:30:41.994Z,99712.16
2023-10-29T11:33:46.901Z,99709.63
2023-10-29T11:36:50.950Z,99698.44
2023-10-29T11:39:54.402Z,99697.48
2023-10-29T11:43:14.092Z,99700.58
2023-10-29T11:46:17.579Z,99695.80
2023-10-29T11:49:21.517Z,99697.27
2023-10-29T11:52:39.979Z,99689.84
2023-10-29T11:55:43.961Z,99683.14
2023-10-29T11:59:01.876Z,99679.27
2023-10-29T12:02:05.652Z,99675.04
2023-10-29T12:05:12.949Z,99669.47
2023-10-29T12:08:17.001Z,99669.89
2023-10-29T12:11:26.706Z,99659.69
2023-10-29T12:14:40.863Z,99649.17
2023-10-29T12:17:45.923Z,99644.87
2023-10-29T12:20:50.081Z,99646.57
2023-10-29T12:23:57.176Z,99646.48
2023-10-29T12:27:01.233Z,99649.98
2023-10-29T12:30:06.818Z,99651.79
2023-10-29T12:33:20.298Z,99654.24
2023-10-29T12:36:23.918Z,99648.33
2023-10-29T12:39:27.719Z,99639.65
2023-10-29T12:42:57.629Z,99639.70
2023-10-29T12:46:01.987Z,99641.18
2023-10-29T12:49:08.521Z,99647.35
2023-10-29T12:52:14.024Z,99640.45
2023-10-29T12:55:17.472Z,99632.21
2023-10-29T12:58:21.791Z,99646.39
2023-10-29T13:01:25.941Z,99642.98
2023-10-29T13:04:29.386Z,99644.57
2023-10-29T13:07:32.805Z,99651.23
2023-10-29T13:10:36.750Z,99654.96
2023-10-29T13:13:40.243Z,99658.52
2023-10-29T13:16:43.847Z,99662.30
2023-10-29T13:19:47.762Z,99666.02
2023-10-29T13:22:51.234Z,99664.73
2023-10-29T13:25:56.909Z,99666.33
2023-10-29T13:29:00.822Z,99664.85
2023-10-29T13:32:06.682Z,99665.56
2023-10-29T13:35:10.504Z,99661.32
2023-10-29T13:38:14.809Z,99661.75
2023-10-29T13:41:18.436Z,99654.10
2023-10-29T13:44:23.629Z,99652.36
2023-10-29T13:47:27.189Z,99640.59
2023-10-29T13:50:30.745Z,99628.23
2023-10-29T13:53:35.027Z,99622.84
2023-10-29T13:56:38.523Z,99612.59
2023-10-29T13:59:42.039Z,99618.13
2023-10-29T14:02:45.532Z,99605.95
2023-10-29T14:05:49.218Z,99600.74
2023-10-29T14:08:52.797Z,99614.50
2023-10-29T14:11:56.661Z,99614.76
2023-10-29T14:15:00.663Z,99616.69
2023-10-29T14:18:04.514Z,99617.17
2023-10-29T14:21:08.244Z,99621.10
2023-10-29T14:24:11.790Z,99639.33
2023-10-29T14:27:15.267Z,99641.12
2023-10-29T14:30:19.245Z,99633.88
2023-10-29T14:33:23.071Z,99639.39
2023-10-29T14:36:26.878Z,99646.32
2023-10-29T14:39:30.328Z,99647.53
2023-10-29T14:42:33.851Z,99637.80
2023-10-29T14:45:42.518Z,99636.60
2023-10-29T14:48:46.009Z,99640.59
2023-10-29T14:51:49.504Z,99631.20
2023-10-29T14:54:52.976Z,99638.80
2023-10-29T14:57:56.423Z,99631.80
2023-10-29T15:01:03.471Z,99625.55
2023-10-29T15:04:07.378Z,99619.81
2023-10-29T15:07:10.884Z,99621.66
2023-10-29T15:10:14.426Z,99629.02
2023-10-29T15:13:17.954Z,99632.70
2023-10-29T15:16:21.499Z,99632.74
2023-10-29T15:19:36.696Z,99638.21
2023-10-29T15:22:40.650Z,99641.75
2023-10-29T15:25:44.339Z,99639.94
2023-10-29T15:28:49.802Z,99640.41
2023-10-29T15:31:53.942Z,99641.48
2023-10-29T15:34:58.105Z,99636.02
2023-10-29T15:38:01.979Z,99638.09
2023-10-29T15:41:07.302Z,99636.36
2023-10-29T15:44:10.769Z,99631.42
2023-10-29T15:47:14.202Z,99636.38
2023-10-29T15:50:17.679Z,99629.10
2023-10-29T15:53:21.458Z,99626.17
2023-10-29T15:56:26.826Z,99626.39
2023-10-29T15:59:30.259Z,99629.30
2023-10-29T16:02:33.751Z,99637.52
2023-10-29T16:05:37.467Z,99639.36
2023-10-29T16:08:41.368Z,99628.38
2023-10-29T16:11:47.708Z,99625.11
2023-10-29T16:14:52.172Z,99618.98
2023-10-29T16:17:55.854Z,99626.99
2023-10-29T16:20:59.391Z,99638.67
2023-10-29T16:24:03.962Z,99643.54
2023-10-29T16:27:07.958Z,99647.84
2023-10-29T16:30:13.635Z,99642.42
2023-10-29T16:33:17.392Z,99641.40
2023-10-29T16:36:21.588Z,99644.44
2023-10-29T16:39:26.325Z,99647.04
2023-10-29T16:42:30.710Z,99638.46
2023-10-29T16:45:39.298Z,99641.60
2023-10-29T16:48:43.357Z,99642.80
2023-10-29T16:51:47.611Z,99636.19
2023-10-29T16:54:51.945Z,99634.16
2023-10-29T16:57:56.145Z,99632.00
2023-10-29T17:01:00.412Z,99622.58
2023-10-29T17:04:06.256Z,99627.98
2023-10-29T17:07:11.246Z,99625.23
2023-10-29T17:10:16.614Z,99620.18
2023-10-29T17:13:22.025Z,99612.43
2023-10-29T17:16:26.499Z,99623.30
2023-10-29T17:19:31.787Z,99629.29
2023-10-29T17:22:36.401Z,99632.41
2023-10-29T17:25:40.740Z,99620.79
2023-10-29T17:28:45.614Z,99625.69
2023-10-29T17:31:50.458Z,99622.73
2023-10-29T17:34:54.941Z,99614.98
2023-10-29T17:37:59.050Z,99614.46
2023-10-29T17:41:04.212Z,99602.80
2023-10-29T17:44:09.050Z,99599.78
2023-10-29T17:47:13.076Z,99602.60
2023-10-29T17:50:17.229Z,99600.33
2023-10-29T17:53:21.335Z,99616.80
2023-10-29T17:56:25.377Z,99630.04
2023-10-29T17:59:29.969Z,99636.65
2023-10-29T18:02:35.715Z,99635.09
2023-10-29T18:05:39.485Z,99624.81
2023-10-29T18:08:43.294Z,99627.34
2023-10-29T18:11:46.907Z,99615.80
2023-10-29T18:14:51.904Z,99609.36
2023-10-29T18:17:55.743Z,99598.95
2023-10-29T18:21:00.425Z,99596.36
2023-10-29T18:24:05.822Z,99598.87
2023-10-29T18:27:11.449Z,99599.42
2023-10-29T18:30:16.376Z,99607.41
2023-10-29T18:33:20.465Z,99609.75
2023-10-29T18:36:26.866Z,99604.80
2023-10-29T18:39:30.942Z,99605.73
2023-10-29T18:42:35.261Z,99603.52
2023-10-29T18:45:42.398Z,99597.58
2023-10-29T18:48:46.593Z,99597.31
2023-10-29T18:51:50.961Z,99590.82
2023-10-29T18:54:56.224Z,99585.02
2023-10-29T18:58:00.346Z,99583.33
2023-10-29T19:01:10.031Z,99580.89
2023-10-29T19:04:14.224Z,99576.88
2023-10-29T19:07:18.950Z,99585.75
2023-10-29T19:10:23.232Z,99582.61
2023-10-29T19:13:27.254Z,99589.52
2023-10-29T19:16:32.422Z,99580.34
2023-10-29T19:19:38.350Z,99573.86
2023-10-29T19:22:42.576Z,99572.58
2023-10-29T19:25:46.617Z,99571.91
2023-10-29T19:28:50.729Z,99588.54
2023-10-29T19:31:55.740Z,99589.41
2023-10-29T19:35:00.785Z,99588.05
2023-10-29T19:38:06.513Z,99599.29
2023-10-29T19:41:10.863Z,99595.66
2023-10-29T19:44:15.657Z,99579.31
2023-10-29T19:47:19.766Z,99579.94
2023-10-29T19:50:24.656Z,99574.21
2023-10-29T19:53:30.042Z,99579.91
2023-10-29T19:56:34.191Z,99580.02
2023-10-29T19:59:38.243Z,99584.60
2023-10-29T20:02:42.590Z,99589.75
2023-10-29T20:05:46.852Z,99589.36
2023-10-29T20:08:52.321Z,99591.10
2023-10-29T20:11:56.257Z,99602.50
2023-10-29T20:15:00.392Z,99599.63
2023-10-29T20:18:05.319Z,99599.39
2023-10-29T20:21:14.797Z,99595.05
2023-10-29T20:24:21.116Z,99591.81
2023-10-29T20:27:25.029Z,99589.32
2023-10-29T20:30:29.068Z,99595.66
2023-10-29T20:33:33.066Z,99602.23
2023-10-29T20:36:37.233Z,99606.11
2023-10-29T20:39:40.938Z,99610.95
2023-10-29T20:42:45.013Z,99606.58
2023-10-29T20:45:53.009Z,99606.53
2023-10-29T20:48:56.980Z,99611.02
2023-10-29T20:52:01.041Z,99621.71
2023-10-29T20:55:06.734Z,99633.45
2023-10-29T20:58:10.531Z,99641.95
2023-10-29T21:01:13.981Z,99645.30
2023-10-29T21:04:17.622Z,99645.95
2023-10-29T21:07:21.197Z,99646.04
2023-10-29T21:10:27.760Z,99652.44
2023-10-29T21:13:31.713Z,99655.60
2023-10-29T21:16:35.208Z,99656.14
2023-10-29T21:19:38.734Z,99664.75
2023-10-29T21:22:42.214Z,99676.92
2023-10-29T21:25:47.289Z,99682.43
2023-10-29T21:28:50.822Z,99689.20
2023-10-29T21:31:54.295Z,99694.77
2023-10-29T21:34:57.727Z,99699.27
2023-10-29T21:38:01.519Z,99700.40
2023-10-29T21:41:06.274Z,99705.58
2023-10-29T21:44:09.739Z,99711.25
2023-10-29T21:47:13.498Z,99714.14
2023-10-29T21:50:17.278Z,99726.92
2023-10-29T21:53:20.744Z,99730.63
2023-10-29T21:56:24.221Z,99737.58
2023-10-29T21:59:27.674Z,99734.08
2023-10-29T22:02:31.143Z,99731.38
2023-10-29T22:05:34.747Z,99737.98
2023-10-29T22:08:38.166Z,99740.85
2023-10-29T22:11:41.647Z,99742.65
2023-10-29T22:14:45.084Z,99743.23
2023-10-29T22:17:48.528Z,99743.33
2023-10-29T22:21:00.102Z,99746.39
2023-10-29T22:24:04.342Z,99747.23
2023-10-29T22:27:08.022Z,99754.60
2023-10-29T22:30:13.727Z,99756.33
2023-10-29T22:33:17.568Z,99750.88
2023-10-29T22:36:21.152Z,99751.20
2023-10-29T22:39:24.798Z,99755.48
2023-10-29T22:42:28.360Z,99754.70
2023-10-29T22:45:31.838Z,99752.66
2023-10-29T22:48:35.615Z,99723.17
2023-10-29T22:51:39.130Z,99718.89
2023-10-29T22:54:42.731Z,99724.21
2023-10-29T22:57:48.992Z,99703.86
2023-10-29T23:00:52.535Z,99695.30
2023-10-29T23:03:56.611Z,99698.95
2023-10-29T23:07:00.397Z,99693.11
2023-10-29T23:10:05.425Z,99695.75
2023-10-29T23:13:09.205Z,99706.19
2023-10-29T23:16:13.685Z,99696.23
2023-10-29T23:19:17.195Z,99682.27
2023-10-29T23:22:20.594Z,99662.55
2023-10-29T23:25:24.055Z,99661.29
2023-10-29T23:28:37.468Z,99663.77
2023-10-29T23:31:42.115Z,99662.89
2023-10-29T23:34:45.754Z,99659.06
2023-10-29T23:37:49.868Z,99659.98
2023-10-29T23:40:53.336Z,99668.77
2023-10-29T23:43:57.355Z,99687.38
2023-10-29T23:47:00.799Z,99697.19
2023-10-29T23:50:06.417Z,99692.02
2023-10-29T23:53:10.406Z,99689.02
2023-10-29T23:56:14.156Z,99686.73
2023-10-29T23:59:17.607Z,99684.06
